Current Weather

Lewis University

Chicago/Romeoville, Illinois (KLOT)

Report from: Monday, June 24, 2024 3:45 PM CDT
Current time: Tuesday, June 25, 2024 4:49 AM CDT

Nearby weather – Weather history – Daily summaries
Weather forecast

Temperature30.0°C (86.0°F)
Heat index31.0°C (87.7°F)
Dew point18.0°C (64.4°F)
Winds 4 kts (2.1 m/s, 4.6 mph) Vrb
Winds variableWinds variable from South-Southeast (160°) to West-Southwest (240°)
Visibility10 mi. (16.1 km)
Clouds Few clouds 5,500 ft. (1,676 m)
Altimeter29.94 in.Hg (1014 mB)
Relative humidity49 %
Density altitude1,980 ft. (603 m)
Flight conditions Visual Meteorological Conditions
Raw dataKLOT 242045Z 18004KT 160V240 10SM FEW055 30/18 A2994
An unhandled exception has occurred. See browser dev tools for details. Reload 🗙